Time;durP1;ratioP1;P1;durP2;ratioP2;P2;SDS_P1;SDS_P2;PMS_P1;PMS_P2;Temp;Humidity;BMP_temperature;BMP_pressure;BME280_temperature;BME280_humidity;BME280_pressure;Samples;Min_cycle;Max_cycle;Signal;HPM_P1;HPM_P2
2021/12/25 00:01:30;;;;;;;48.42;28.10;;;;;;;;;;5071439;28;20021;-75
2021/12/25 00:03:57;;;;;;;40.63;25.70;;;;;;;;;;5073216;28;20104;-77
2021/12/25 00:06:24;;;;;;;39.95;25.67;;;;;;;;;;5072131;28;20029;-78
2021/12/25 00:08:51;;;;;;;39.88;25.20;;;;;;;;;;5072644;28;20368;-76
2021/12/25 00:11:17;;;;;;;31.35;19.90;;;;;;;;;;5071387;28;20063;-79
2021/12/25 00:13:44;;;;;;;29.60;18.23;;;;;;;;;;5073158;28;20479;-75
2021/12/25 00:16:10;;;;;;;43.75;27.73;;;;;;;;;;5072865;28;20503;-74
2021/12/25 00:18:38;;;;;;;55.67;34.08;;;;;;;;;;5073323;28;20025;-75
2021/12/25 00:21:05;;;;;;;68.13;40.30;;;;;;;;;;5072570;28;20440;-76
2021/12/25 00:23:31;;;;;;;54.90;36.65;;;;;;;;;;5072827;28;20040;-76
2021/12/25 00:26:03;;;;;;;42.17;26.10;;;;;;;;;;5072793;28;20029;-75
2021/12/25 00:31:20;;;;;;;41.38;26.13;;;;;;;;;;5072618;28;20103;-75
2021/12/25 00:33:55;;;;;;;39.00;25.40;;;;;;;;;;5070842;28;20484;-78
2021/12/25 00:36:22;;;;;;;44.97;29.10;;;;;;;;;;5071343;28;20090;-74
2021/12/25 00:38:48;;;;;;;47.40;30.80;;;;;;;;;;5071289;28;20062;-75
2021/12/25 00:41:18;;;;;;;57.17;36.75;;;;;;;;;;5072469;28;20025;-78
2021/12/25 00:43:45;;;;;;;53.17;34.78;;;;;;;;;;5072599;28;20032;-76
2021/12/25 00:46:13;;;;;;;35.33;23.20;;;;;;;;;;5070026;28;20020;-76
2021/12/25 00:48:39;;;;;;;32.92;22.25;;;;;;;;;;5072343;28;20032;-74
2021/12/25 00:51:08;;;;;;;31.15;21.45;;;;;;;;;;5072676;28;20035;-74
2021/12/25 00:53:34;;;;;;;27.90;18.30;;;;;;;;;;5072767;28;20024;-77
2021/12/25 00:56:00;;;;;;;36.90;22.27;;;;;;;;;;5072758;28;20399;-74
2021/12/25 00:58:26;;;;;;;47.70;28.65;;;;;;;;;;5072716;28;20090;-75
2021/12/25 01:00:52;;;;;;;76.10;47.17;;;;;;;;;;5072817;28;20104;-77
2021/12/25 01:03:19;;;;;;;100.32;50.33;;;;;;;;;;5072760;28;20106;-74
2021/12/25 01:05:45;;;;;;;80.75;47.75;;;;;;;;;;5072694;28;20075;-75
2021/12/25 01:08:11;;;;;;;89.95;53.08;;;;;;;;;;5072736;28;20024;-78
2021/12/25 01:10:38;;;;;;;80.78;48.47;;;;;;;;;;5072453;28;20387;-75
2021/12/25 01:15:41;;;;;;;49.28;27.63;;;;;;;;;;5072497;28;20031;-75
2021/12/25 01:18:55;;;;;;;54.45;30.77;;;;;;;;;;5071166;28;20040;-78
2021/12/25 01:31:55;;;;;;;35.85;23.55;;;;;;;;;;5072324;28;20081;-77
2021/12/25 01:48:24;;;;;;;28.65;19.13;;;;;;;;;;5072419;28;20486;-77
2021/12/25 01:50:51;;;;;;;55.90;30.80;;;;;;;;;;5070694;28;20484;-78
2021/12/25 01:53:17;;;;;;;61.42;34.72;;;;;;;;;;5072105;28;20020;-75
2021/12/25 01:55:43;;;;;;;170.57;82.22;;;;;;;;;;5072099;28;20024;-74
2021/12/25 01:58:10;;;;;;;111.57;63.22;;;;;;;;;;5072045;28;20070;-74
2021/12/25 02:00:41;;;;;;;103.70;59.63;;;;;;;;;;5072020;28;20040;-77
2021/12/25 02:03:08;;;;;;;94.32;55.78;;;;;;;;;;5072047;28;20048;-75
2021/12/25 02:05:35;;;;;;;105.38;59.85;;;;;;;;;;5072016;28;20055;-76
2021/12/25 02:08:01;;;;;;;96.20;53.78;;;;;;;;;;5071813;28;20519;-76
2021/12/25 02:10:27;;;;;;;74.38;45.35;;;;;;;;;;5071849;28;20052;-78
2021/12/25 02:12:54;;;;;;;83.03;50.10;;;;;;;;;;5071500;28;20035;-78
2021/12/25 02:15:23;;;;;;;68.13;41.47;;;;;;;;;;5071826;28;20111;-75
2021/12/25 02:18:08;;;;;;;54.72;33.70;;;;;;;;;;5071550;28;20093;-75
2021/12/25 02:20:39;;;;;;;;;;;;;;;;;;5071990;28;20053;-76
2021/12/25 02:23:25;;;;;;;38.13;24.05;;;;;;;;;;5071733;28;19952;-74
2021/12/25 02:25:52;;;;;;;38.55;23.23;;;;;;;;;;5070435;28;20029;-78
2021/12/25 02:28:19;;;;;;;37.33;21.95;;;;;;;;;;5070222;28;20033;-76
2021/12/25 02:30:46;;;;;;;33.70;22.75;;;;;;;;;;5070507;28;20032;-73
2021/12/25 02:33:13;;;;;;;31.48;21.27;;;;;;;;;;5072991;28;20103;-78
2021/12/25 02:35:39;;;;;;;30.50;21.30;;;;;;;;;;5075567;28;20499;-75
2021/12/25 02:38:08;;;;;;;37.70;25.13;;;;;;;;;;5075521;28;20040;-74
2021/12/25 02:40:34;;;;;;;31.77;21.85;;;;;;;;;;5074214;28;20036;-76
2021/12/25 02:43:00;;;;;;;36.08;24.05;;;;;;;;;;5075502;28;20039;-76
2021/12/25 02:45:27;;;;;;;32.15;21.90;;;;;;;;;;5075094;28;20068;-75
2021/12/25 02:47:55;;;;;;;35.22;23.73;;;;;;;;;;5075440;28;20021;-77
2021/12/25 02:50:24;;;;;;;36.33;22.60;;;;;;;;;;5075077;28;20021;-78
2021/12/25 02:52:50;;;;;;;34.83;24.10;;;;;;;;;;5075249;28;20030;-77
2021/12/25 02:55:16;;;;;;;35.95;24.17;;;;;;;;;;5073637;28;20428;-75
2021/12/25 02:57:49;;;;;;;39.30;25.27;;;;;;;;;;5075141;28;20166;-75
2021/12/25 03:00:15;;;;;;;53.92;31.08;;;;;;;;;;5074879;28;20544;-77
2021/12/25 03:02:42;;;;;;;42.60;27.20;;;;;;;;;;5075182;28;20070;-76
2021/12/25 03:05:08;;;;;;;65.43;35.85;;;;;;;;;;5074924;28;20024;-76
2021/12/25 03:07:34;;;;;;;48.15;30.42;;;;;;;;;;5075044;28;20544;-73
2021/12/25 03:10:00;;;;;;;46.08;29.58;;;;;;;;;;5075175;28;20114;-75
2021/12/25 03:12:35;;;;;;;51.17;31.02;;;;;;;;;;5074503;28;20107;-74
2021/12/25 03:17:47;;;;;;;70.18;44.72;;;;;;;;;;5067472;28;20105;-74
2021/12/25 03:20:33;;;;;;;61.50;41.40;;;;;;;;;;5073563;28;20480;-74
2021/12/25 03:22:59;;;;;;;62.13;40.08;;;;;;;;;;5074808;28;20063;-74
2021/12/25 03:25:25;;;;;;;47.00;32.15;;;;;;;;;;5074483;28;20048;-74
2021/12/25 03:27:54;;;;;;;65.53;36.13;;;;;;;;;;5074442;28;20052;-75
2021/12/25 03:30:22;;;;;;;63.97;35.97;;;;;;;;;;5074502;28;20545;-73
2021/12/25 03:32:48;;;;;;;72.82;41.10;;;;;;;;;;5074313;28;20035;-74
2021/12/25 03:35:14;;;;;;;51.20;32.65;;;;;;;;;;5073384;28;20025;-76
2021/12/25 03:37:41;;;;;;;44.70;29.52;;;;;;;;;;5073941;28;20082;-76
2021/12/25 03:40:07;;;;;;;59.83;35.42;;;;;;;;;;5074536;28;20044;-77
2021/12/25 03:42:33;;;;;;;50.25;30.00;;;;;;;;;;5074195;28;20028;-76
2021/12/25 03:45:00;;;;;;;47.75;29.05;;;;;;;;;;5074089;28;20068;-75
2021/12/25 03:47:34;;;;;;;55.47;32.88;;;;;;;;;;5074267;28;20530;-75
2021/12/25 03:58:19;;;;;;;34.40;21.38;;;;;;;;;;5073995;28;20039;-76
2021/12/25 04:00:48;;;;;;;38.05;24.52;;;;;;;;;;5072644;28;20032;-75
2021/12/25 04:03:28;;;;;;;40.28;24.42;;;;;;;;;;5072819;28;20036;-77
2021/12/25 04:05:54;;;;;;;34.55;21.02;;;;;;;;;;5073983;28;20021;-75
2021/12/25 04:08:24;;;;;;;37.72;24.38;;;;;;;;;;5073928;28;20024;-73
2021/12/25 04:10:56;;;;;;;30.35;20.10;;;;;;;;;;5073572;28;20024;-75
2021/12/25 04:13:22;;;;;;;35.33;21.73;;;;;;;;;;5073796;28;20028;-75
2021/12/25 04:15:48;;;;;;;34.58;22.20;;;;;;;;;;5073334;28;20066;-77
2021/12/25 04:18:15;;;;;;;36.90;23.05;;;;;;;;;;5073619;28;20037;-77
2021/12/25 04:20:44;;;;;;;37.78;23.85;;;;;;;;;;5073347;28;20020;-73
2021/12/25 04:23:17;;;;;;;30.50;19.60;;;;;;;;;;5072001;28;20036;-77
2021/12/25 04:25:43;;;;;;;30.58;21.02;;;;;;;;;;5071949;28;20057;-73
2021/12/25 04:28:19;;;;;;;32.65;25.55;;;;;;;;;;5072504;28;20043;-76
2021/12/25 05:06:12;;;;;;;79.15;45.13;;;;;;;;;;5072608;28;20274;-74
2021/12/25 05:08:38;;;;;;;69.35;41.58;;;;;;;;;;5072184;28;20103;-76
2021/12/25 05:11:05;;;;;;;45.42;27.80;;;;;;;;;;5072752;28;20027;-73
2021/12/25 05:13:32;;;;;;;45.70;28.88;;;;;;;;;;5072330;28;20040;-77
2021/12/25 05:15:58;;;;;;;49.65;29.30;;;;;;;;;;5072520;28;20048;-74
2021/12/25 05:18:24;;;;;;;34.60;21.83;;;;;;;;;;5072354;28;20540;-76
2021/12/25 05:20:51;;;;;;;46.97;27.92;;;;;;;;;;5072309;28;20027;-77
2021/12/25 05:23:17;;;;;;;73.07;40.90;;;;;;;;;;5072225;28;20471;-73
2021/12/25 05:25:43;;;;;;;93.30;53.85;;;;;;;;;;5071769;28;20174;-76
2021/12/25 05:28:09;;;;;;;107.45;64.63;;;;;;;;;;5072295;28;20029;-75
2021/12/25 05:30:35;;;;;;;78.97;45.35;;;;;;;;;;5071988;28;20103;-76
2021/12/25 05:33:01;;;;;;;56.13;32.22;;;;;;;;;;5071038;28;20020;-75
2021/12/25 05:35:30;;;;;;;55.15;31.75;;;;;;;;;;5071179;28;20029;-75
2021/12/25 05:37:59;;;;;;;43.50;26.73;;;;;;;;;;5071876;28;20036;-77
2021/12/25 05:40:25;;;;;;;62.28;35.38;;;;;;;;;;5071072;28;20032;-73
2021/12/25 05:42:52;;;;;;;60.63;33.28;;;;;;;;;;5071973;28;20392;-74
2021/12/25 05:45:18;;;;;;;39.05;24.42;;;;;;;;;;5071865;28;20025;-73
2021/12/25 05:47:44;;;;;;;31.98;19.77;;;;;;;;;;5070442;28;20036;-74
2021/12/25 05:50:10;;;;;;;34.50;23.48;;;;;;;;;;5071636;28;20036;-77
2021/12/25 05:52:36;;;;;;;33.20;21.45;;;;;;;;;;5071916;28;20031;-73
2021/12/25 05:55:02;;;;;;;62.90;37.55;;;;;;;;;;5070652;28;20031;-75
2021/12/25 05:57:28;;;;;;;37.30;22.95;;;;;;;;;;5071897;28;20423;-72
2021/12/25 05:59:54;;;;;;;42.08;27.25;;;;;;;;;;5071462;28;20063;-76
2021/12/25 06:02:21;;;;;;;41.05;24.85;;;;;;;;;;5071932;28;20091;-76
2021/12/25 06:04:47;;;;;;;43.05;26.40;;;;;;;;;;5071250;28;20028;-75
2021/12/25 06:07:13;;;;;;;48.25;30.48;;;;;;;;;;5071940;28;20044;-73
2021/12/25 06:09:40;;;;;;;51.53;32.63;;;;;;;;;;5075857;28;20379;-77
2021/12/25 06:12:10;;;;;;;47.42;29.92;;;;;;;;;;5075100;28;20108;-74
2021/12/25 06:14:36;;;;;;;45.72;30.27;;;;;;;;;;5075657;28;20025;-74
2021/12/25 06:17:02;;;;;;;34.97;22.13;;;;;;;;;;5075772;28;20078;-74
2021/12/25 06:19:28;;;;;;;32.85;21.67;;;;;;;;;;5074506;28;20024;-74
2021/12/25 06:21:57;;;;;;;35.60;22.70;;;;;;;;;;5074182;28;20040;-76
2021/12/25 06:24:25;;;;;;;53.78;34.75;;;;;;;;;;5074327;28;20048;-73
2021/12/25 06:26:51;;;;;;;72.47;45.08;;;;;;;;;;5075314;28;20078;-74
2021/12/25 06:29:19;;;;;;;91.18;53.90;;;;;;;;;;5075688;28;20024;-75
2021/12/25 06:31:50;;;;;;;90.30;54.95;;;;;;;;;;5075036;28;20082;-75
2021/12/25 06:34:16;;;;;;;75.30;46.20;;;;;;;;;;5075564;28;20028;-76
2021/12/25 06:36:42;;;;;;;78.65;48.05;;;;;;;;;;5075169;28;20025;-73
2021/12/25 06:39:13;;;;;;;101.55;58.22;;;;;;;;;;5075003;28;20029;-76
2021/12/25 06:41:40;;;;;;;131.50;77.50;;;;;;;;;;5074894;28;20028;-75
2021/12/25 06:44:06;;;;;;;82.70;48.72;;;;;;;;;;5066381;28;20526;-74
2021/12/25 06:46:32;;;;;;;56.58;35.88;;;;;;;;;;5055268;28;20021;-75
2021/12/25 06:48:58;;;;;;;51.05;34.33;;;;;;;;;;5053765;28;20078;-76
2021/12/25 06:51:25;;;;;;;44.13;28.90;;;;;;;;;;5055253;28;20025;-76
2021/12/25 06:53:51;;;;;;;71.90;44.20;;;;;;;;;;5057475;28;20037;-76
2021/12/25 06:56:18;;;;;;;121.95;69.72;;;;;;;;;;5073386;28;20024;-75
2021/12/25 06:58:44;;;;;;;108.78;67.25;;;;;;;;;;5074641;28;20020;-75
2021/12/25 07:01:10;;;;;;;108.40;65.18;;;;;;;;;;5075050;28;20085;-75
2021/12/25 07:03:37;;;;;;;116.88;70.88;;;;;;;;;;5074637;28;20032;-76
2021/12/25 07:09:08;;;;;;;770.97;403.30;;;;;;;;;;5055107;28;20380;-76
2021/12/25 07:11:34;;;;;;;477.73;259.13;;;;;;;;;;5054669;28;20044;-76
2021/12/25 07:14:03;;;;;;;218.63;128.85;;;;;;;;;;5054552;28;20024;-75
2021/12/25 07:16:29;;;;;;;183.93;114.93;;;;;;;;;;5054270;28;20452;-75
2021/12/25 07:18:55;;;;;;;189.18;115.88;;;;;;;;;;5053093;28;20130;-74
2021/12/25 07:21:21;;;;;;;202.05;124.25;;;;;;;;;;5054249;28;20529;-74
2021/12/25 07:23:48;;;;;;;236.27;139.35;;;;;;;;;;5053321;28;20061;-75
2021/12/25 07:26:17;;;;;;;178.68;113.63;;;;;;;;;;5056602;28;20039;-74
2021/12/25 07:28:46;;;;;;;144.45;91.25;;;;;;;;;;5074456;28;20024;-75
2021/12/25 07:31:12;;;;;;;118.15;73.15;;;;;;;;;;5074384;28;20092;-76
2021/12/25 07:33:40;;;;;;;122.95;86.97;;;;;;;;;;5074489;28;20399;-75
2021/12/25 07:36:07;;;;;;;128.07;85.55;;;;;;;;;;5074402;28;20387;-76
2021/12/25 07:38:33;;;;;;;178.13;115.88;;;;;;;;;;5074173;28;20043;-75
2021/12/25 07:40:59;;;;;;;281.58;168.80;;;;;;;;;;5074004;28;20043;-77
2021/12/25 07:43:25;;;;;;;252.65;159.35;;;;;;;;;;5073841;28;20024;-74
2021/12/25 07:45:52;;;;;;;242.48;151.50;;;;;;;;;;5074247;28;20487;-75
2021/12/25 07:48:20;;;;;;;256.20;153.65;;;;;;;;;;5073865;28;20024;-76
2021/12/25 07:50:47;;;;;;;350.23;223.82;;;;;;;;;;5074286;28;20025;-76
2021/12/25 07:53:16;;;;;;;366.88;233.50;;;;;;;;;;5073724;28;20602;-76
2021/12/25 07:55:42;;;;;;;253.63;157.52;;;;;;;;;;5073363;28;20032;-76
2021/12/25 07:58:08;;;;;;;169.43;106.28;;;;;;;;;;5073140;28;20040;-74
2021/12/25 08:00:34;;;;;;;103.88;62.55;;;;;;;;;;5073976;28;20039;-76
2021/12/25 08:03:00;;;;;;;99.88;58.58;;;;;;;;;;5073664;28;20035;-76
2021/12/25 08:05:27;;;;;;;101.05;61.28;;;;;;;;;;5073474;28;20040;-76
2021/12/25 08:07:53;;;;;;;104.78;63.08;;;;;;;;;;5074086;28;20078;-75
2021/12/25 08:10:21;;;;;;;104.45;62.25;;;;;;;;;;5073333;28;20029;-76
2021/12/25 08:12:51;;;;;;;119.28;73.15;;;;;;;;;;5073942;28;20063;-76
2021/12/25 08:15:18;;;;;;;116.93;75.15;;;;;;;;;;5073151;28;20081;-75
2021/12/25 08:17:45;;;;;;;90.20;59.67;;;;;;;;;;5072901;28;20040;-75
2021/12/25 08:20:14;;;;;;;71.65;49.83;;;;;;;;;;5071170;28;20020;-74
2021/12/25 08:22:43;;;;;;;63.10;42.63;;;;;;;;;;5069763;28;20028;-76
2021/12/25 08:25:11;;;;;;;56.67;39.13;;;;;;;;;;5072251;28;20052;-75
2021/12/25 08:27:43;;;;;;;61.33;40.70;;;;;;;;;;5071753;28;20486;-75
2021/12/25 08:30:11;;;;;;;67.30;47.15;;;;;;;;;;5070252;28;20017;-77
2021/12/25 08:32:41;;;;;;;102.95;75.20;;;;;;;;;;5070729;28;20071;-75
2021/12/25 08:35:08;;;;;;;79.18;57.17;;;;;;;;;;5071607;28;20039;-74
2021/12/25 08:37:37;;;;;;;116.90;74.95;;;;;;;;;;5072220;28;20067;-74
2021/12/25 08:40:07;;;;;;;116.05;76.55;;;;;;;;;;5072764;28;20085;-75
2021/12/25 08:42:35;;;;;;;105.88;69.80;;;;;;;;;;5073188;28;20029;-74
2021/12/25 08:47:28;;;;;;;98.78;71.05;;;;;;;;;;5073126;28;20029;-77
2021/12/25 08:49:55;;;;;;;125.60;78.65;;;;;;;;;;5072883;28;20031;-74
2021/12/25 08:52:23;;;;;;;128.82;77.50;;;;;;;;;;5072802;28;20082;-76
2021/12/25 08:54:49;;;;;;;124.45;74.80;;;;;;;;;;5072942;28;20060;-76
2021/12/25 08:57:16;;;;;;;109.88;64.78;;;;;;;;;;5072404;28;20081;-76
2021/12/25 08:59:44;;;;;;;80.38;46.88;;;;;;;;;;5072794;28;20029;-76
2021/12/25 09:02:14;;;;;;;46.88;31.13;;;;;;;;;;5072501;28;20039;-76
2021/12/25 09:04:40;;;;;;;43.38;29.40;;;;;;;;;;5071444;28;20035;-76
2021/12/25 09:07:07;;;;;;;31.80;23.92;;;;;;;;;;5072301;28;20495;-77
2021/12/25 09:09:33;;;;;;;38.53;29.17;;;;;;;;;;5071879;28;20056;-73
2021/12/25 09:12:00;;;;;;;41.50;29.20;;;;;;;;;;5072426;28;20111;-75
2021/12/25 09:14:26;;;;;;;35.03;26.17;;;;;;;;;;5071908;28;20024;-76
2021/12/25 09:16:52;;;;;;;39.55;29.17;;;;;;;;;;5072756;28;20039;-77
2021/12/25 09:19:19;;;;;;;49.72;31.15;;;;;;;;;;5072930;28;20028;-75
2021/12/25 09:21:45;;;;;;;42.40;26.67;;;;;;;;;;5072094;28;20413;-75
2021/12/25 09:24:11;;;;;;;37.22;25.65;;;;;;;;;;5072733;28;20605;-75
2021/12/25 09:26:37;;;;;;;45.88;29.75;;;;;;;;;;5072867;28;20383;-76
2021/12/25 09:29:05;;;;;;;43.45;29.83;;;;;;;;;;5072200;28;20086;-76
2021/12/25 09:31:32;;;;;;;50.25;34.10;;;;;;;;;;5073093;28;20021;-77
2021/12/25 09:33:58;;;;;;;56.20;35.10;;;;;;;;;;5072591;28;20387;-77
2021/12/25 09:36:24;;;;;;;59.55;40.47;;;;;;;;;;5072475;28;20043;-76
2021/12/25 09:38:50;;;;;;;57.83;39.60;;;;;;;;;;5071428;28;20106;-75
2021/12/25 09:41:17;;;;;;;53.25;33.75;;;;;;;;;;5072245;28;20105;-77
2021/12/25 09:43:46;;;;;;;50.47;33.17;;;;;;;;;;5072465;28;20020;-74
2021/12/25 09:46:12;;;;;;;40.38;28.10;;;;;;;;;;5072295;28;20484;-78
2021/12/25 09:48:39;;;;;;;38.67;26.60;;;;;;;;;;5072398;28;20025;-79
2021/12/25 09:51:05;;;;;;;37.53;24.88;;;;;;;;;;5071605;28;20028;-75
2021/12/25 09:53:32;;;;;;;40.13;25.95;;;;;;;;;;5072284;28;20025;-75
2021/12/25 09:55:59;;;;;;;33.00;24.42;;;;;;;;;;5071950;28;20060;-75
2021/12/25 09:58:25;;;;;;;35.53;24.50;;;;;;;;;;5071918;28;20036;-75
2021/12/25 10:00:51;;;;;;;33.95;23.80;;;;;;;;;;5072095;28;20036;-76
2021/12/25 10:03:36;;;;;;;32.47;23.58;;;;;;;;;;5071851;28;20052;-78
2021/12/25 10:06:02;;;;;;;30.27;22.65;;;;;;;;;;5071770;28;20036;-77
2021/12/25 10:08:28;;;;;;;30.42;22.13;;;;;;;;;;5072074;28;20475;-76
2021/12/25 10:11:02;;;;;;;25.70;18.90;;;;;;;;;;5070585;28;20025;-75
2021/12/25 10:13:38;;;;;;;36.03;24.83;;;;;;;;;;5072055;28;20024;-79
2021/12/25 10:16:23;;;;;;;31.15;22.48;;;;;;;;;;5070501;28;20056;-77
2021/12/25 10:18:50;;;;;;;31.17;21.50;;;;;;;;;;5071614;28;20029;-78
2021/12/25 10:21:27;;;;;;;27.80;21.95;;;;;;;;;;5070529;28;20028;-75
2021/12/25 10:24:15;;;;;;;35.20;24.38;;;;;;;;;;5070020;28;20079;-78
2021/12/25 10:26:42;;;;;;;29.52;21.33;;;;;;;;;;5071761;28;20502;-77
2021/12/25 10:29:34;;;;;;;30.90;22.25;;;;;;;;;;5071606;28;20529;-77
2021/12/25 10:32:13;;;;;;;50.65;35.38;;;;;;;;;;5069903;28;20048;-75
2021/12/25 10:34:39;;;;;;;48.40;32.80;;;;;;;;;;5071225;28;20035;-78
2021/12/25 10:37:13;;;;;;;41.97;30.35;;;;;;;;;;5071589;28;20091;-75
2021/12/25 10:39:42;;;;;;;38.88;28.90;;;;;;;;;;5070100;28;20024;-78
2021/12/25 10:42:15;;;;;;;54.85;38.08;;;;;;;;;;5071612;28;20032;-78
2021/12/25 10:44:43;;;;;;;49.60;36.42;;;;;;;;;;5071680;28;20360;-78
2021/12/25 10:47:11;;;;;;;40.20;31.05;;;;;;;;;;5071586;28;20073;-77
2021/12/25 10:49:42;;;;;;;42.40;27.92;;;;;;;;;;5071523;28;20050;-78
2021/12/25 10:52:11;;;;;;;42.10;31.50;;;;;;;;;;5070124;28;20116;-78
2021/12/25 10:54:43;;;;;;;52.72;38.10;;;;;;;;;;5073431;28;20029;-77
2021/12/25 10:57:09;;;;;;;46.70;35.28;;;;;;;;;;5074841;28;20036;-79
2021/12/25 10:59:56;;;;;;;60.55;42.53;;;;;;;;;;5075459;28;20051;-76
2021/12/25 11:02:36;;;;;;;66.57;45.25;;;;;;;;;;5075209;28;20093;-76
2021/12/25 11:05:21;;;;;;;55.80;37.33;;;;;;;;;;5074459;28;20029;-78
2021/12/25 11:07:47;;;;;;;;;;;;;;;;;;5074657;28;20052;-78
2021/12/25 11:10:15;;;;;;;60.45;41.60;;;;;;;;;;5074544;28;19915;-78
2021/12/25 11:12:42;;;;;;;64.57;44.20;;;;;;;;;;5074659;28;20510;-79
2021/12/25 11:15:10;;;;;;;54.40;38.88;;;;;;;;;;5074714;28;20430;-78
2021/12/25 11:17:39;;;;;;;40.25;29.67;;;;;;;;;;5074326;28;20033;-77
2021/12/25 11:20:05;;;;;;;37.22;28.63;;;;;;;;;;5074667;28;20029;-77
2021/12/25 11:22:45;;;;;;;30.98;21.30;;;;;;;;;;5074434;28;20032;-79
2021/12/25 11:25:12;;;;;;;32.13;22.60;;;;;;;;;;5074377;28;20056;-77
2021/12/25 11:27:38;;;;;;;26.40;19.77;;;;;;;;;;5074480;28;20028;-77
2021/12/25 11:30:05;;;;;;;20.67;15.85;;;;;;;;;;5074774;28;20548;-78
2021/12/25 11:32:32;;;;;;;19.95;14.15;;;;;;;;;;5074194;28;20020;-78
2021/12/25 11:34:58;;;;;;;18.95;14.45;;;;;;;;;;5074473;28;20085;-78
2021/12/25 11:37:43;;;;;;;23.77;16.73;;;;;;;;;;5074113;28;20094;-78
2021/12/25 11:40:14;;;;;;;21.45;16.42;;;;;;;;;;5074173;28;20083;-79
2021/12/25 11:42:45;;;;;;;19.25;14.00;;;;;;;;;;5074401;28;20021;-79
2021/12/25 11:45:18;;;;;;;21.35;15.98;;;;;;;;;;5072971;28;20037;-78
2021/12/25 11:47:51;;;;;;;19.55;14.25;;;;;;;;;;5073776;28;20464;-80
2021/12/25 11:50:25;;;;;;;16.77;12.65;;;;;;;;;;5074018;28;20021;-80
2021/12/25 11:53:16;;;;;;;18.25;13.02;;;;;;;;;;5072914;28;20120;-78
2021/12/25 12:00:54;;;;;;;15.20;11.40;;;;;;;;;;5074303;28;20059;-77
2021/12/25 12:03:41;;;;;;;14.38;11.63;;;;;;;;;;5073806;28;20485;-77
2021/12/25 12:06:08;;;;;;;13.50;10.57;;;;;;;;;;5072636;28;20032;-76
2021/12/25 12:08:52;;;;;;;15.45;10.85;;;;;;;;;;5073975;28;20456;-78
2021/12/25 12:11:22;;;;;;;12.90;9.50;;;;;;;;;;5071188;28;20024;-80
2021/12/25 12:14:08;;;;;;;10.50;8.57;;;;;;;;;;5071656;28;20025;-82
2021/12/25 12:16:39;;;;;;;13.23;9.57;;;;;;;;;;5074255;28;20040;-84
2021/12/25 12:19:22;;;;;;;18.60;11.45;;;;;;;;;;5074891;28;20025;-81
2021/12/25 12:21:48;;;;;;;16.02;11.25;;;;;;;;;;5074572;28;20387;-81
2021/12/25 12:24:39;;;;;;;13.35;11.00;;;;;;;;;;5073450;28;20550;-79
2021/12/25 12:27:05;;;;;;;22.20;14.68;;;;;;;;;;5073840;28;20035;-81
2021/12/25 12:29:38;;;;;;;13.98;12.10;;;;;;;;;;5073664;28;20032;-79
2021/12/25 12:32:04;;;;;;;26.33;14.18;;;;;;;;;;5074305;28;20016;-79
2021/12/25 12:34:36;;;;;;;17.90;12.55;;;;;;;;;;5073473;28;20039;-79
2021/12/25 12:37:21;;;;;;;22.25;16.00;;;;;;;;;;5073415;28;20041;-76
2021/12/25 12:40:07;;;;;;;19.98;13.35;;;;;;;;;;5072835;28;20020;-77
2021/12/25 12:42:53;;;;;;;23.02;16.50;;;;;;;;;;5070903;28;20017;-77
2021/12/25 12:45:35;;;;;;;16.95;12.32;;;;;;;;;;5073375;28;20017;-78
2021/12/25 12:48:09;;;;;;;17.02;13.77;;;;;;;;;;5073355;28;20031;-77
2021/12/25 12:50:36;;;;;;;16.63;13.00;;;;;;;;;;5072843;28;20028;-82
2021/12/25 12:55:53;;;;;;;16.63;12.27;;;;;;;;;;5073374;28;20082;-76
2021/12/25 12:58:22;;;;;;;17.25;13.60;;;;;;;;;;5072539;28;20040;-80
2021/12/25 13:00:59;;;;;;;16.25;12.45;;;;;;;;;;5073138;28;20028;-78
2021/12/25 13:03:28;;;;;;;16.27;12.15;;;;;;;;;;5072659;28;20392;-78
2021/12/25 13:06:02;;;;;;;13.77;10.95;;;;;;;;;;5071961;28;20060;-80
2021/12/25 13:08:30;;;;;;;15.80;11.60;;;;;;;;;;5071703;28;20028;-78
2021/12/25 13:13:51;;;;;;;16.15;11.95;;;;;;;;;;5073060;28;20442;-80
2021/12/25 13:16:18;;;;;;;15.50;11.45;;;;;;;;;;5072130;28;20032;-80
2021/12/25 13:18:45;;;;;;;15.93;12.55;;;;;;;;;;5072601;28;20028;-79
2021/12/25 13:21:14;;;;;;;15.57;12.38;;;;;;;;;;5072943;28;20145;-79
2021/12/25 13:23:55;;;;;;;16.70;12.00;;;;;;;;;;5072113;28;20052;-80
2021/12/25 13:26:26;;;;;;;17.27;13.77;;;;;;;;;;5072710;28;20025;-79
2021/12/25 13:28:53;;;;;;;16.17;12.73;;;;;;;;;;5072496;28;20028;-78
2021/12/25 13:31:23;;;;;;;17.00;13.82;;;;;;;;;;5072338;28;20021;-80
2021/12/25 13:33:52;;;;;;;45.28;32.58;;;;;;;;;;5072667;28;20028;-80
2021/12/25 13:36:23;;;;;;;66.65;44.05;;;;;;;;;;5070954;28;20541;-78
2021/12/25 13:38:55;;;;;;;37.95;26.98;;;;;;;;;;5071268;28;20028;-79
2021/12/25 13:41:41;;;;;;;32.53;24.50;;;;;;;;;;5071117;28;20372;-79
2021/12/25 13:44:25;;;;;;;33.03;24.98;;;;;;;;;;5072320;28;20086;-80
2021/12/25 13:46:51;;;;;;;33.40;25.20;;;;;;;;;;5072141;28;20032;-79
2021/12/25 13:49:36;;;;;;;43.30;31.45;;;;;;;;;;5070985;28;20062;-80
2021/12/25 13:52:08;;;;;;;39.53;27.65;;;;;;;;;;5072273;28;20047;-78
2021/12/25 13:54:36;;;;;;;38.67;28.50;;;;;;;;;;5072050;28;20031;-80
2021/12/25 13:57:03;;;;;;;30.38;22.88;;;;;;;;;;5072261;28;20092;-81
2021/12/25 13:59:29;;;;;;;22.35;17.45;;;;;;;;;;5072098;28;20025;-79
2021/12/25 14:01:59;;;;;;;25.55;17.60;;;;;;;;;;5072209;28;20472;-80
2021/12/25 14:04:26;;;;;;;27.48;20.60;;;;;;;;;;5072078;28;20050;-79
2021/12/25 14:06:52;;;;;;;26.65;20.70;;;;;;;;;;5072247;28;20029;-80
2021/12/25 14:09:18;;;;;;;23.00;18.77;;;;;;;;;;5072173;28;20429;-80
2021/12/25 14:11:53;;;;;;;22.50;17.08;;;;;;;;;;5072049;28;20048;-79
2021/12/25 14:14:22;;;;;;;20.92;15.93;;;;;;;;;;5070769;28;20029;-80
2021/12/25 14:16:49;;;;;;;30.77;21.23;;;;;;;;;;5071985;28;20040;-79
2021/12/25 14:19:15;;;;;;;30.08;20.95;;;;;;;;;;5072010;28;20383;-80
2021/12/25 14:21:52;;;;;;;27.60;18.85;;;;;;;;;;5072034;28;20025;-79
2021/12/25 14:24:21;;;;;;;26.02;18.90;;;;;;;;;;5071632;28;20084;-79
2021/12/25 14:26:47;;;;;;;28.08;20.15;;;;;;;;;;5071976;28;20032;-79
2021/12/25 14:29:27;;;;;;;23.10;16.67;;;;;;;;;;5073385;28;20426;-79
2021/12/25 14:31:53;;;;;;;18.33;14.30;;;;;;;;;;5076037;28;20028;-81
2021/12/25 14:34:20;;;;;;;19.05;14.82;;;;;;;;;;5075911;28;20031;-79
2021/12/25 14:36:48;;;;;;;17.38;13.20;;;;;;;;;;5074483;28;20033;-80
2021/12/25 14:39:19;;;;;;;21.55;14.98;;;;;;;;;;5076285;28;20488;-81
2021/12/25 14:41:46;;;;;;;25.95;17.38;;;;;;;;;;5074531;28;20032;-78
2021/12/25 14:44:17;;;;;;;22.63;16.45;;;;;;;;;;5075590;28;20024;-79
2021/12/25 14:46:44;;;;;;;20.85;14.90;;;;;;;;;;5075593;28;20044;-79
2021/12/25 14:49:10;;;;;;;20.35;15.85;;;;;;;;;;5075591;28;20024;-79
2021/12/25 14:51:37;;;;;;;19.75;14.55;;;;;;;;;;5075515;28;20432;-79
2021/12/25 14:54:07;;;;;;;20.90;15.70;;;;;;;;;;5075263;28;20103;-81
2021/12/25 14:56:40;;;;;;;18.80;14.57;;;;;;;;;;5075400;28;20024;-78
2021/12/25 14:59:08;;;;;;;17.42;14.15;;;;;;;;;;5075427;28;20028;-78
2021/12/25 15:01:42;;;;;;;18.23;13.82;;;;;;;;;;5075456;28;20020;-79
2021/12/25 15:04:15;;;;;;;18.92;15.20;;;;;;;;;;5075369;28;20028;-78
2021/12/25 15:06:46;;;;;;;27.45;21.05;;;;;;;;;;5075069;28;20024;-80
2021/12/25 15:09:15;;;;;;;45.47;32.45;;;;;;;;;;5074035;28;20475;-78
2021/12/25 15:11:45;;;;;;;54.20;41.17;;;;;;;;;;5074867;28;20108;-81
2021/12/25 15:14:13;;;;;;;66.85;47.00;;;;;;;;;;5075224;28;20021;-79
2021/12/25 15:16:41;;;;;;;96.95;69.82;;;;;;;;;;5074815;28;20032;-80
2021/12/25 15:19:08;;;;;;;97.07;67.72;;;;;;;;;;5075019;28;20479;-80
2021/12/25 15:21:52;;;;;;;82.68;58.63;;;;;;;;;;5074769;28;20070;-80
2021/12/25 15:24:20;;;;;;;93.97;66.28;;;;;;;;;;5074564;28;20049;-80
2021/12/25 15:26:47;;;;;;;111.97;80.85;;;;;;;;;;5075046;28;20036;-79
2021/12/25 15:29:14;;;;;;;130.75;95.13;;;;;;;;;;5074659;28;20103;-79
2021/12/25 15:31:42;;;;;;;142.30;104.47;;;;;;;;;;5074712;28;20051;-78
2021/12/25 15:34:12;;;;;;;138.55;104.95;;;;;;;;;;5074810;28;20024;-79
2021/12/25 15:36:42;;;;;;;82.60;63.20;;;;;;;;;;5074758;28;20123;-80
2021/12/25 15:39:33;;;;;;;72.25;56.03;;;;;;;;;;5073212;28;20082;-80
2021/12/25 15:42:05;;;;;;;61.33;44.20;;;;;;;;;;5074402;28;20032;-79
2021/12/25 15:44:33;;;;;;;72.22;51.20;;;;;;;;;;5074683;28;20111;-80
2021/12/25 15:47:02;;;;;;;80.45;58.30;;;;;;;;;;5074560;28;20028;-79
2021/12/25 15:49:29;;;;;;;78.90;58.20;;;;;;;;;;5074626;28;20105;-78
2021/12/25 15:51:59;;;;;;;72.60;58.75;;;;;;;;;;5074154;28;20471;-78
2021/12/25 15:54:28;;;;;;;297.20;176.80;;;;;;;;;;5074980;28;20475;-80
2021/12/25 15:56:57;;;;;;;201.25;129.02;;;;;;;;;;5074151;28;20086;-79
2021/12/25 15:59:28;;;;;;;154.95;106.55;;;;;;;;;;5074461;28;20051;-79
2021/12/25 16:01:54;;;;;;;148.23;104.70;;;;;;;;;;5074325;28;20029;-79